sensor_id;sensor_type;location;lat;lon;timestamp;pressure;altitude;pressure_sealevel;temperature;humidity
70200;BME280;57587;55.688;37.600;2024-01-27T00:02:16;99347.25;;;-0.85;61.04
70200;BME280;57587;55.688;37.600;2024-01-27T00:04:43;99353.47;;;-0.86;61.12
70200;BME280;57587;55.688;37.600;2024-01-27T00:07:10;99355.84;;;-0.83;60.90
70200;BME280;57587;55.688;37.600;2024-01-27T00:09:37;99346.03;;;-0.81;60.73
70200;BME280;57587;55.688;37.600;2024-01-27T00:12:04;99347.25;;;-0.85;61.33
70200;BME280;57587;55.688;37.600;2024-01-27T00:14:32;99346.03;;;-0.81;60.60
70200;BME280;57587;55.688;37.600;2024-01-27T00:16:59;99353.94;;;-0.81;60.67
70200;BME280;57587;55.688;37.600;2024-01-27T00:19:26;99344.63;;;-0.85;61.33
70200;BME280;57587;55.688;37.600;2024-01-27T00:21:53;99351.53;;;-0.84;61.37
70200;BME280;57587;55.688;37.600;2024-01-27T00:24:20;99342.72;;;-0.83;61.18
70200;BME280;57587;55.688;37.600;2024-01-27T00:26:47;99353.31;;;-0.85;61.50
70200;BME280;57587;55.688;37.600;2024-01-27T00:29:15;99350.59;;;-0.83;61.05
70200;BME280;57587;55.688;37.600;2024-01-27T00:31:42;99354.75;;;-0.81;60.97
70200;BME280;57587;55.688;37.600;2024-01-27T00:34:09;99345.88;;;-1.02;61.00
70200;BME280;57587;55.688;37.600;2024-01-27T00:36:36;99344.81;;;-1.00;61.06
70200;BME280;57587;55.688;37.600;2024-01-27T00:39:04;99344.59;;;-0.97;61.47
70200;BME280;57587;55.688;37.600;2024-01-27T00:41:31;99346.38;;;-0.97;61.65
70200;BME280;57587;55.688;37.600;2024-01-27T00:43:58;99341.25;;;-0.99;61.09
70200;BME280;57587;55.688;37.600;2024-01-27T00:46:25;99352.34;;;-0.95;61.04
70200;BME280;57587;55.688;37.600;2024-01-27T00:48:53;99341.84;;;-0.95;61.06
70200;BME280;57587;55.688;37.600;2024-01-27T00:51:20;99348.16;;;-0.98;61.01
70200;BME280;57587;55.688;37.600;2024-01-27T00:53:47;99349.13;;;-0.99;60.87
70200;BME280;57587;55.688;37.600;2024-01-27T00:56:14;99347.22;;;-0.97;60.88
70200;BME280;57587;55.688;37.600;2024-01-27T00:58:41;99350.28;;;-1.03;61.25
70200;BME280;57587;55.688;37.600;2024-01-27T01:01:08;99348.63;;;-1.04;61.07
70200;BME280;57587;55.688;37.600;2024-01-27T01:03:36;99350.06;;;-1.00;61.04
70200;BME280;57587;55.688;37.600;2024-01-27T01:06:03;99355.31;;;-1.00;60.83
70200;BME280;57587;55.688;37.600;2024-01-27T01:08:31;99357.00;;;-0.99;60.64
70200;BME280;57587;55.688;37.600;2024-01-27T01:10:59;99356.78;;;-0.96;60.82
70200;BME280;57587;55.688;37.600;2024-01-27T01:13:26;99353.66;;;-1.01;60.45
70200;BME280;57587;55.688;37.600;2024-01-27T01:15:53;99353.66;;;-1.01;60.80
70200;BME280;57587;55.688;37.600;2024-01-27T01:18:20;99350.06;;;-1.00;60.36
70200;BME280;57587;55.688;37.600;2024-01-27T01:20:48;99351.13;;;-1.02;60.00
70200;BME280;57587;55.688;37.600;2024-01-27T01:23:15;99357.72;;;-0.97;60.68
70200;BME280;57587;55.688;37.600;2024-01-27T01:25:43;99354.47;;;-1.00;60.40
70200;BME280;57587;55.688;37.600;2024-01-27T01:28:11;99355.09;;;-0.97;59.97
70200;BME280;57587;55.688;37.600;2024-01-27T01:30:38;99352.59;;;-0.98;60.29
70200;BME280;57587;55.688;37.600;2024-01-27T01:33:05;99362.63;;;-0.92;59.64
70200;BME280;57587;55.688;37.600;2024-01-27T01:35:32;99355.31;;;-1.00;59.58
70200;BME280;57587;55.688;37.600;2024-01-27T01:37:59;99354.63;;;-1.02;60.31
70200;BME280;57587;55.688;37.600;2024-01-27T01:40:26;99355.91;;;-0.96;60.10
70200;BME280;57587;55.688;37.600;2024-01-27T01:42:53;99361.53;;;-1.01;60.55
70200;BME280;57587;55.688;37.600;2024-01-27T01:45:21;99359.50;;;-0.97;60.12
70200;BME280;57587;55.688;37.600;2024-01-27T01:47:48;99347.94;;;-0.95;60.34
70200;BME280;57587;55.688;37.600;2024-01-27T01:50:17;99355.31;;;-1.00;60.40
70200;BME280;57587;55.688;37.600;2024-01-27T01:52:47;99360.19;;;-1.06;60.16
70200;BME280;57587;55.688;37.600;2024-01-27T01:55:15;99356.25;;;-1.12;60.54
70200;BME280;57587;55.688;37.600;2024-01-27T01:57:44;99356.69;;;-1.18;60.49
70200;BME280;57587;55.688;37.600;2024-01-27T02:00:12;99360.63;;;-1.24;60.43
70200;BME280;57587;55.688;37.600;2024-01-27T02:02:40;99360.75;;;-1.25;60.61
70200;BME280;57587;55.688;37.600;2024-01-27T02:05:07;99366.00;;;-1.25;61.12
70200;BME280;57587;55.688;37.600;2024-01-27T02:07:36;99365.66;;;-1.21;60.77
70200;BME280;57587;55.688;37.600;2024-01-27T02:10:05;99369.94;;;-1.20;60.44
70200;BME280;57587;55.688;37.600;2024-01-27T02:12:33;99369.72;;;-1.17;60.58
70200;BME280;57587;55.688;37.600;2024-01-27T02:15:00;99377.94;;;-1.21;60.43
70200;BME280;57587;55.688;37.600;2024-01-27T02:17:30;99377.31;;;-1.25;60.54
70200;BME280;57587;55.688;37.600;2024-01-27T02:19:57;99377.22;;;-1.23;60.67
70200;BME280;57587;55.688;37.600;2024-01-27T02:22:24;99372.81;;;-1.23;60.32
70200;BME280;57587;55.688;37.600;2024-01-27T02:24:52;99372.91;;;-1.24;60.28
70200;BME280;57587;55.688;37.600;2024-01-27T02:27:19;99388.03;;;-1.28;60.14
70200;BME280;57587;55.688;37.600;2024-01-27T02:29:46;99392.25;;;-1.25;60.68
70200;BME280;57587;55.688;37.600;2024-01-27T02:32:13;99385.31;;;-1.26;60.18
70200;BME280;57587;55.688;37.600;2024-01-27T02:34:40;99384.44;;;-1.38;60.85
70200;BME280;57587;55.688;37.600;2024-01-27T02:37:09;99385.72;;;-1.44;61.34
70200;BME280;57587;55.688;37.600;2024-01-27T02:39:36;99386.22;;;-1.38;61.20
70200;BME280;57587;55.688;37.600;2024-01-27T02:42:03;99395.22;;;-1.30;60.78
70200;BME280;57587;55.688;37.600;2024-01-27T02:44:31;99395.81;;;-1.26;60.75
70200;BME280;57587;55.688;37.600;2024-01-27T02:46:58;99392.16;;;-1.24;60.63
70200;BME280;57587;55.688;37.600;2024-01-27T02:49:25;99393.28;;;-1.28;61.36
70200;BME280;57587;55.688;37.600;2024-01-27T02:51:52;99396.75;;;-1.27;60.81
70200;BME280;57587;55.688;37.600;2024-01-27T02:54:19;99395.81;;;-1.26;60.92
70200;BME280;57587;55.688;37.600;2024-01-27T02:56:46;99404.09;;;-1.20;60.42
70200;BME280;57587;55.688;37.600;2024-01-27T02:59:14;99403.94;;;-1.18;60.24
70200;BME280;57587;55.688;37.600;2024-01-27T03:01:41;99403.69;;;-1.26;60.06
70200;BME280;57587;55.688;37.600;2024-01-27T03:04:08;99406.31;;;-1.26;60.26
70200;BME280;57587;55.688;37.600;2024-01-27T03:06:35;99399.16;;;-1.24;60.10
70200;BME280;57587;55.688;37.600;2024-01-27T03:09:02;99397.50;;;-1.25;59.71
70200;BME280;57587;55.688;37.600;2024-01-27T03:11:30;99399.81;;;-1.33;59.90
70200;BME280;57587;55.688;37.600;2024-01-27T03:13:57;99397.94;;;-1.31;59.99
70200;BME280;57587;55.688;37.600;2024-01-27T03:16:24;99401.16;;;-1.28;59.96
70200;BME280;57587;55.688;37.600;2024-01-27T03:18:51;99401.53;;;-1.32;59.73
70200;BME280;57587;55.688;37.600;2024-01-27T03:21:18;99404.03;;;-1.31;59.92
70200;BME280;57587;55.688;37.600;2024-01-27T03:23:46;99402.97;;;-1.28;60.07
70200;BME280;57587;55.688;37.600;2024-01-27T03:26:13;99412.41;;;-1.26;59.75
70200;BME280;57587;55.688;37.600;2024-01-27T03:28:40;99413.00;;;-1.22;59.83
70200;BME280;57587;55.688;37.600;2024-01-27T03:31:07;99410.75;;;-1.27;59.74
70200;BME280;57587;55.688;37.600;2024-01-27T03:33:35;99407.00;;;-1.35;59.76
70200;BME280;57587;55.688;37.600;2024-01-27T03:36:02;99414.34;;;-1.41;60.16
70200;BME280;57587;55.688;37.600;2024-01-27T03:38:29;99416.03;;;-1.40;60.03
70200;BME280;57587;55.688;37.600;2024-01-27T03:40:57;99422.84;;;-1.37;59.93
70200;BME280;57587;55.688;37.600;2024-01-27T03:43:26;99429.28;;;-1.41;59.55
70200;BME280;57587;55.688;37.600;2024-01-27T03:45:53;99426.53;;;-1.40;60.03
70200;BME280;57587;55.688;37.600;2024-01-27T03:48:20;99421.78;;;-1.34;59.84
70200;BME280;57587;55.688;37.600;2024-01-27T03:50:47;99423.19;;;-1.42;60.29
70200;BME280;57587;55.688;37.600;2024-01-27T03:53:15;99427.38;;;-1.39;60.34
70200;BME280;57587;55.688;37.600;2024-01-27T03:55:42;99435.88;;;-1.35;60.28
70200;BME280;57587;55.688;37.600;2024-01-27T03:58:09;99439.31;;;-1.35;59.93
70200;BME280;57587;55.688;37.600;2024-01-27T04:00:36;99442.56;;;-1.31;60.27
70200;BME280;57587;55.688;37.600;2024-01-27T04:03:03;99440.59;;;-1.41;60.31
70200;BME280;57587;55.688;37.600;2024-01-27T04:05:30;99450.03;;;-1.38;60.17
70200;BME280;57587;55.688;37.600;2024-01-27T04:07:58;99464.75;;;-1.35;59.97
70200;BME280;57587;55.688;37.600;2024-01-27T04:10:25;99455.50;;;-1.41;59.86
70200;BME280;57587;55.688;37.600;2024-01-27T04:12:52;99465.19;;;-1.42;60.26
70200;BME280;57587;55.688;37.600;2024-01-27T04:15:19;99465.50;;;-1.46;59.51
70200;BME280;57587;55.688;37.600;2024-01-27T04:17:46;99474.19;;;-1.46;59.83
70200;BME280;57587;55.688;37.600;2024-01-27T04:20:13;99466.53;;;-1.49;59.37
70200;BME280;57587;55.688;37.600;2024-01-27T04:22:41;99478.22;;;-1.53;59.82
70200;BME280;57587;55.688;37.600;2024-01-27T04:25:08;99482.19;;;-1.47;59.92
70200;BME280;57587;55.688;37.600;2024-01-27T04:27:39;99496.91;;;-1.45;59.92
70200;BME280;57587;55.688;37.600;2024-01-27T04:30:10;99490.69;;;-1.44;59.76
70200;BME280;57587;55.688;37.600;2024-01-27T04:32:38;99492.25;;;-1.41;59.40
70200;BME280;57587;55.688;37.600;2024-01-27T04:35:11;99491.03;;;-1.48;59.48
70200;BME280;57587;55.688;37.600;2024-01-27T04:37:44;99488.22;;;-1.58;59.24
70200;BME280;57587;55.688;37.600;2024-01-27T04:40:12;99496.59;;;-1.53;59.69
70200;BME280;57587;55.688;37.600;2024-01-27T04:42:39;99503.00;;;-1.57;59.40
70200;BME280;57587;55.688;37.600;2024-01-27T04:45:07;99499.59;;;-1.70;59.29
70200;BME280;57587;55.688;37.600;2024-01-27T04:47:34;99509.63;;;-1.77;59.84
70200;BME280;57587;55.688;37.600;2024-01-27T04:50:02;99504.31;;;-1.75;60.20
70200;BME280;57587;55.688;37.600;2024-01-27T04:52:32;99517.22;;;-1.85;60.25
70200;BME280;57587;55.688;37.600;2024-01-27T04:55:39;99511.03;;;-1.84;60.73
70200;BME280;57587;55.688;37.600;2024-01-27T04:59:46;99505.69;;;-2.08;59.90
70200;BME280;57587;55.688;37.600;2024-01-27T05:02:45;99509.16;;;-1.95;60.52
70200;BME280;57587;55.688;37.600;2024-01-27T05:06:01;99490.69;;;-2.06;60.27
70200;BME280;57587;55.688;37.600;2024-01-27T05:08:54;99500.13;;;-2.16;60.66
70200;BME280;57587;55.688;37.600;2024-01-27T05:11:34;99505.69;;;-2.08;61.25
70200;BME280;57587;55.688;37.600;2024-01-27T05:14:02;99517.88;;;-2.07;60.77
70200;BME280;57587;55.688;37.600;2024-01-27T05:16:29;99521.72;;;-2.00;60.09
70200;BME280;57587;55.688;37.600;2024-01-27T05:18:56;99518.50;;;-2.16;59.97
70200;BME280;57587;55.688;37.600;2024-01-27T05:21:23;99525.28;;;-2.26;60.67
70200;BME280;57587;55.688;37.600;2024-01-27T05:23:50;99523.00;;;-2.18;61.26
70200;BME280;57587;55.688;37.600;2024-01-27T05:26:17;99524.88;;;-2.20;61.53
70200;BME280;57587;55.688;37.600;2024-01-27T05:28:45;99523.63;;;-2.15;60.81
70200;BME280;57587;55.688;37.600;2024-01-27T05:31:12;99530.34;;;-2.11;60.74
70200;BME280;57587;55.688;37.600;2024-01-27T05:33:39;99519.22;;;-2.14;60.99
70200;BME280;57587;55.688;37.600;2024-01-27T05:36:06;99522.03;;;-2.04;60.90
70200;BME280;57587;55.688;37.600;2024-01-27T05:38:34;99533.06;;;-2.12;61.25
70200;BME280;57587;55.688;37.600;2024-01-27T05:41:01;99536.00;;;-2.04;61.50
70200;BME280;57587;55.688;37.600;2024-01-27T05:43:29;99530.75;;;-2.04;61.42
70200;BME280;57587;55.688;37.600;2024-01-27T05:45:56;99538.41;;;-2.01;60.82
70200;BME280;57587;55.688;37.600;2024-01-27T05:48:23;99542.16;;;-1.92;60.95
70200;BME280;57587;55.688;37.600;2024-01-27T05:50:58;99547.53;;;-1.94;60.69
70200;BME280;57587;55.688;37.600;2024-01-27T05:53:27;99548.16;;;-1.90;60.71
70200;BME280;57587;55.688;37.600;2024-01-27T05:55:55;99553.81;;;-1.83;60.66
70200;BME280;57587;55.688;37.600;2024-01-27T05:58:22;99557.19;;;-1.81;60.31
70200;BME280;57587;55.688;37.600;2024-01-27T06:00:49;99559.47;;;-1.77;60.53
70200;BME280;57587;55.688;37.600;2024-01-27T06:03:16;99555.72;;;-1.86;60.73
70200;BME280;57587;55.688;37.600;2024-01-27T06:05:44;99562.44;;;-1.81;60.96
70200;BME280;57587;55.688;37.600;2024-01-27T06:08:11;99566.41;;;-1.76;60.67
70200;BME280;57587;55.688;37.600;2024-01-27T06:10:39;99559.06;;;-1.71;60.10
70200;BME280;57587;55.688;37.600;2024-01-27T06:13:06;99564.31;;;-1.71;59.50
70200;BME280;57587;55.688;37.600;2024-01-27T06:15:33;99565.56;;;-1.89;60.01
70200;BME280;57587;55.688;37.600;2024-01-27T06:18:00;99571.25;;;-1.82;60.14
70200;BME280;57587;55.688;37.600;2024-01-27T06:20:28;99577.63;;;-1.74;60.35
70200;BME280;57587;55.688;37.600;2024-01-27T06:22:55;99583.19;;;-1.78;59.59
70200;BME280;57587;55.688;37.600;2024-01-27T06:25:22;99580.03;;;-1.71;60.25
70200;BME280;57587;55.688;37.600;2024-01-27T06:27:49;99577.13;;;-1.66;60.10
70200;BME280;57587;55.688;37.600;2024-01-27T06:30:16;99583.59;;;-1.59;59.80
70200;BME280;57587;55.688;37.600;2024-01-27T06:32:46;99577.31;;;-1.56;59.78
70200;BME280;57587;55.688;37.600;2024-01-27T06:35:14;99582.75;;;-1.47;58.75
70200;BME280;57587;55.688;37.600;2024-01-27T06:37:41;99585.94;;;-1.54;59.51
70200;BME280;57587;55.688;37.600;2024-01-27T06:40:09;99589.47;;;-1.55;59.16
70200;BME280;57587;55.688;37.600;2024-01-27T06:42:36;99586.56;;;-1.64;59.80
70200;BME280;57587;55.688;37.600;2024-01-27T06:45:04;99598.53;;;-1.72;59.05
70200;BME280;57587;55.688;37.600;2024-01-27T06:47:31;99596.00;;;-1.61;59.73
70200;BME280;57587;55.688;37.600;2024-01-27T06:49:59;99597.13;;;-1.52;59.57
70200;BME280;57587;55.688;37.600;2024-01-27T06:52:26;99602.38;;;-1.40;59.61
70200;BME280;57587;55.688;37.600;2024-01-27T06:54:53;99605.53;;;-1.34;58.98
70200;BME280;57587;55.688;37.600;2024-01-27T06:57:21;99610.25;;;-1.27;58.84
70200;BME280;57587;55.688;37.600;2024-01-27T06:59:53;99602.03;;;-1.22;58.92
70200;BME280;57587;55.688;37.600;2024-01-27T07:02:27;99599.31;;;-1.21;58.46
70200;BME280;57587;55.688;37.600;2024-01-27T07:04:55;99607.91;;;-1.19;58.47
70200;BME280;57587;55.688;37.600;2024-01-27T07:07:25;99610.03;;;-1.24;58.86
70200;BME280;57587;55.688;37.600;2024-01-27T07:09:56;99613.16;;;-1.19;58.68
70200;BME280;57587;55.688;37.600;2024-01-27T07:12:24;99617.13;;;-1.13;58.56
70200;BME280;57587;55.688;37.600;2024-01-27T07:14:51;99615.25;;;-1.11;58.07
70200;BME280;57587;55.688;37.600;2024-01-27T07:17:23;99626.81;;;-1.13;58.16
70200;BME280;57587;55.688;37.600;2024-01-27T07:19:50;99622.19;;;-1.23;58.24
70200;BME280;57587;55.688;37.600;2024-01-27T07:22:18;99623.84;;;-1.09;57.84
70200;BME280;57587;55.688;37.600;2024-01-27T07:24:45;99624.72;;;-1.21;58.49
70200;BME280;57587;55.688;37.600;2024-01-27T07:27:12;99628.47;;;-1.12;58.28
70200;BME280;57587;55.688;37.600;2024-01-27T07:29:40;99628.69;;;-1.16;57.43
70200;BME280;57587;55.688;37.600;2024-01-27T07:32:08;99628.66;;;-1.03;57.81
70200;BME280;57587;55.688;37.600;2024-01-27T07:34:43;99636.47;;;-1.14;57.70
70200;BME280;57587;55.688;37.600;2024-01-27T07:37:11;99634.72;;;-1.26;57.51
70200;BME280;57587;55.688;37.600;2024-01-27T07:39:38;99643.00;;;-1.32;57.74
70200;BME280;57587;55.688;37.600;2024-01-27T07:42:05;99639.44;;;-1.31;57.84
70200;BME280;57587;55.688;37.600;2024-01-27T07:44:33;99646.25;;;-1.16;57.79
70200;BME280;57587;55.688;37.600;2024-01-27T07:47:00;99643.19;;;-1.10;58.17
70200;BME280;57587;55.688;37.600;2024-01-27T07:49:27;99641.28;;;-1.08;57.61
70200;BME280;57587;55.688;37.600;2024-01-27T07:51:55;99645.91;;;-0.99;57.82
70200;BME280;57587;55.688;37.600;2024-01-27T07:54:22;99655.75;;;-0.89;57.51
70200;BME280;57587;55.688;37.600;2024-01-27T07:56:50;99658.44;;;-0.78;57.79
70200;BME280;57587;55.688;37.600;2024-01-27T07:59:17;99663.69;;;-0.78;57.33
70200;BME280;57587;55.688;37.600;2024-01-27T08:01:45;99658.53;;;-0.67;57.77
70200;BME280;57587;55.688;37.600;2024-01-27T08:04:12;99658.19;;;-0.62;57.07
70200;BME280;57587;55.688;37.600;2024-01-27T08:06:50;99656.13;;;-0.70;56.70
70200;BME280;57587;55.688;37.600;2024-01-27T08:09:18;99658.19;;;-0.62;56.37
70200;BME280;57587;55.688;37.600;2024-01-27T08:11:46;99659.03;;;-0.62;56.24
70200;BME280;57587;55.688;37.600;2024-01-27T08:14:19;99664.13;;;-0.48;56.63
70200;BME280;57587;55.688;37.600;2024-01-27T08:16:47;99665.84;;;-0.35;56.24
70200;BME280;57587;55.688;37.600;2024-01-27T08:19:15;99671.72;;;-0.32;56.72
70200;BME280;57587;55.688;37.600;2024-01-27T08:21:48;99663.34;;;-0.37;55.58
70200;BME280;57587;55.688;37.600;2024-01-27T08:24:15;99675.84;;;-0.40;56.63
70200;BME280;57587;55.688;37.600;2024-01-27T08:26:42;99669.88;;;-0.42;56.12
70200;BME280;57587;55.688;37.600;2024-01-27T08:29:09;99677.44;;;-0.38;55.67
70200;BME280;57587;55.688;37.600;2024-01-27T08:31:37;99676.59;;;-0.38;55.67
70200;BME280;57587;55.688;37.600;2024-01-27T08:34:06;99686.16;;;-0.37;55.84
70200;BME280;57587;55.688;37.600;2024-01-27T08:36:34;99691.19;;;-0.34;56.69
70200;BME280;57587;55.688;37.600;2024-01-27T08:39:01;99688.34;;;-0.31;56.83
70200;BME280;57587;55.688;37.600;2024-01-27T08:41:30;99695.59;;;-0.35;56.64
70200;BME280;57587;55.688;37.600;2024-01-27T08:43:57;99695.16;;;-0.29;55.43
70200;BME280;57587;55.688;37.600;2024-01-27T08:46:24;99696.44;;;-0.34;55.53
70200;BME280;57587;55.688;37.600;2024-01-27T08:48:51;99695.97;;;-0.39;56.21
70200;BME280;57587;55.688;37.600;2024-01-27T08:51:18;99701.38;;;-0.30;57.18
70200;BME280;57587;55.688;37.600;2024-01-27T08:53:45;99700.03;;;-0.11;56.24
70200;BME280;57587;55.688;37.600;2024-01-27T08:56:16;99695.31;;;0.05;57.90
70200;BME280;57587;55.688;37.600;2024-01-27T08:58:47;99700.28;;;0.21;56.77
70200;BME280;57587;55.688;37.600;2024-01-27T09:01:16;99691.91;;;0.16;54.56
70200;BME280;57587;55.688;37.600;2024-01-27T09:03:44;99699.81;;;0.16;54.94
70200;BME280;57587;55.688;37.600;2024-01-27T09:06:11;99693.41;;;0.07;54.46
70200;BME280;57587;55.688;37.600;2024-01-27T09:08:38;99690.19;;;0.04;54.98
70200;BME280;57587;55.688;37.600;2024-01-27T09:11:06;99690.78;;;0.07;55.93
70200;BME280;57587;55.688;37.600;2024-01-27T09:13:33;99694.78;;;0.24;55.10
70200;BME280;57587;55.688;37.600;2024-01-27T09:16:00;99698.66;;;0.31;54.46
70200;BME280;57587;55.688;37.600;2024-01-27T09:21:45;99702.44;;;0.27;55.93
70200;BME280;57587;55.688;37.600;2024-01-27T09:24:12;99695.94;;;0.44;55.70
70200;BME280;57587;55.688;37.600;2024-01-27T09:26:42;99699.63;;;0.53;54.54
70200;BME280;57587;55.688;37.600;2024-01-27T09:29:09;99692.22;;;0.47;55.19
70200;BME280;57587;55.688;37.600;2024-01-27T09:31:36;99696.25;;;0.39;54.64
70200;BME280;57587;55.688;37.600;2024-01-27T09:34:03;99696.50;;;0.36;54.19
70200;BME280;57587;55.688;37.600;2024-01-27T09:36:31;99696.03;;;0.31;54.98
70200;BME280;57587;55.688;37.600;2024-01-27T09:38:58;99695.31;;;0.40;54.90
70200;BME280;57587;55.688;37.600;2024-01-27T09:41:30;99696.75;;;0.56;55.98
70200;BME280;57587;55.688;37.600;2024-01-27T09:44:01;99700.16;;;0.69;56.50
70200;BME280;57587;55.688;37.600;2024-01-27T09:46:29;99699.94;;;0.72;54.48
70200;BME280;57587;55.688;37.600;2024-01-27T09:48:57;99697.88;;;0.76;56.19
70200;BME280;57587;55.688;37.600;2024-01-27T09:51:25;99698.63;;;0.89;55.74
70200;BME280;57587;55.688;37.600;2024-01-27T09:53:53;99698.50;;;1.02;55.06
70200;BME280;57587;55.688;37.600;2024-01-27T09:56:21;99701.25;;;1.11;55.91
70200;BME280;57587;55.688;37.600;2024-01-27T09:58:50;99699.69;;;1.20;54.91
70200;BME280;57587;55.688;37.600;2024-01-27T10:01:17;99704.47;;;1.26;54.75
70200;BME280;57587;55.688;37.600;2024-01-27T10:03:46;99710.47;;;1.28;54.30
70200;BME280;57587;55.688;37.600;2024-01-27T10:06:14;99707.59;;;1.31;54.77
70200;BME280;57587;55.688;37.600;2024-01-27T10:08:54;99709.41;;;1.31;53.98
70200;BME280;57587;55.688;37.600;2024-01-27T10:11:23;99713.47;;;1.35;54.62
70200;BME280;57587;55.688;37.600;2024-01-27T10:13:54;99718.13;;;1.43;53.19
70200;BME280;57587;55.688;37.600;2024-01-27T10:16:27;99713.59;;;1.33;53.90
70200;BME280;57587;55.688;37.600;2024-01-27T10:19:03;99710.34;;;1.30;53.82
70200;BME280;57587;55.688;37.600;2024-01-27T10:21:31;99712.97;;;1.30;53.97
70200;BME280;57587;55.688;37.600;2024-01-27T10:23:59;99714.53;;;1.32;53.97
70200;BME280;57587;55.688;37.600;2024-01-27T10:26:30;99717.91;;;1.23;53.68
70200;BME280;57587;55.688;37.600;2024-01-27T10:29:01;99720.19;;;1.28;54.36
70200;BME280;57587;55.688;37.600;2024-01-27T10:31:30;99722.72;;;1.18;54.34
70200;BME280;57587;55.688;37.600;2024-01-27T10:33:57;99733.25;;;1.18;54.68
70200;BME280;57587;55.688;37.600;2024-01-27T10:36:25;99729.88;;;1.16;54.86
70200;BME280;57587;55.688;37.600;2024-01-27T10:38:55;99747.59;;;1.14;54.57
70200;BME280;57587;55.688;37.600;2024-01-27T10:41:23;99744.97;;;1.14;53.87
70200;BME280;57587;55.688;37.600;2024-01-27T10:43:51;99749.31;;;1.15;55.01
70200;BME280;57587;55.688;37.600;2024-01-27T10:46:22;99751.22;;;1.13;55.30
70200;BME280;57587;55.688;37.600;2024-01-27T10:48:51;99760.31;;;1.09;54.96
70200;BME280;57587;55.688;37.600;2024-01-27T10:51:31;99763.19;;;1.06;54.56
70200;BME280;57587;55.688;37.600;2024-01-27T10:54:06;99758.38;;;1.00;54.76
70200;BME280;57587;55.688;37.600;2024-01-27T10:56:37;99753.81;;;1.02;54.18
70200;BME280;57587;55.688;37.600;2024-01-27T10:59:09;99768.19;;;0.98;54.01
70200;BME280;57587;55.688;37.600;2024-01-27T11:01:37;99772.03;;;0.94;54.41
70200;BME280;57587;55.688;37.600;2024-01-27T11:04:06;99768.81;;;0.90;53.84
70200;BME280;57587;55.688;37.600;2024-01-27T11:06:36;99763.88;;;0.85;54.64
70200;BME280;57587;55.688;37.600;2024-01-27T11:09:05;99778.94;;;0.83;54.32
70200;BME280;57587;55.688;37.600;2024-01-27T11:11:33;99771.28;;;0.80;54.07
70200;BME280;57587;55.688;37.600;2024-01-27T11:14:00;99787.31;;;0.77;53.93
70200;BME280;57587;55.688;37.600;2024-01-27T11:16:27;99781.09;;;0.78;54.89
70200;BME280;57587;55.688;37.600;2024-01-27T11:18:56;99785.63;;;0.76;55.90
70200;BME280;57587;55.688;37.600;2024-01-27T11:21:23;99786.84;;;0.83;55.78
70200;BME280;57587;55.688;37.600;2024-01-27T11:23:50;99802.31;;;0.88;55.26
70200;BME280;57587;55.688;37.600;2024-01-27T11:26:21;99793.56;;;0.87;53.93
70200;BME280;57587;55.688;37.600;2024-01-27T11:28:50;99796.78;;;0.80;54.40
70200;BME280;57587;55.688;37.600;2024-01-27T11:31:19;99799.28;;;0.70;54.87
70200;BME280;57587;55.688;37.600;2024-01-27T11:33:48;99805.22;;;0.61;54.77
70200;BME280;57587;55.688;37.600;2024-01-27T11:36:23;99805.06;;;0.51;54.54
70200;BME280;57587;55.688;37.600;2024-01-27T11:38:52;99808.09;;;0.58;54.75
70200;BME280;57587;55.688;37.600;2024-01-27T11:41:28;99811.19;;;0.52;54.22
70200;BME280;57587;55.688;37.600;2024-01-27T11:43:57;99818.38;;;0.50;54.46
70200;BME280;57587;55.688;37.600;2024-01-27T11:46:26;99817.63;;;0.48;55.51
70200;BME280;57587;55.688;37.600;2024-01-27T11:48:54;99825.19;;;0.52;55.01
70200;BME280;57587;55.688;37.600;2024-01-27T11:51:21;99829.59;;;0.52;54.76
70200;BME280;57587;55.688;37.600;2024-01-27T11:53:50;99827.94;;;0.51;54.81
70200;BME280;57587;55.688;37.600;2024-01-27T11:56:18;99823.00;;;0.46;55.24
70200;BME280;57587;55.688;37.600;2024-01-27T11:58:51;99833.44;;;0.48;54.99
70200;BME280;57587;55.688;37.600;2024-01-27T12:01:18;99836.28;;;0.44;54.99
70200;BME280;57587;55.688;37.600;2024-01-27T12:03:46;99837.47;;;0.40;54.85
70200;BME280;57587;55.688;37.600;2024-01-27T12:06:13;99842.97;;;0.37;55.05
70200;BME280;57587;55.688;37.600;2024-01-27T12:08:42;99836.66;;;0.27;55.00
70200;BME280;57587;55.688;37.600;2024-01-27T12:11:15;99841.94;;;0.27;55.25
70200;BME280;57587;55.688;37.600;2024-01-27T12:13:49;99845.53;;;0.26;54.87
70200;BME280;57587;55.688;37.600;2024-01-27T12:16:16;99851.22;;;0.20;55.12
70200;BME280;57587;55.688;37.600;2024-01-27T12:18:47;99858.38;;;0.18;55.24
70200;BME280;57587;55.688;37.600;2024-01-27T12:21:19;99863.03;;;0.14;55.07
70200;BME280;57587;55.688;37.600;2024-01-27T12:23:54;99864.81;;;0.14;54.94
70200;BME280;57587;55.688;37.600;2024-01-27T12:26:26;99867.16;;;0.06;55.08
70200;BME280;57587;55.688;37.600;2024-01-27T12:28:54;99872.84;;;-0.01;54.75
70200;BME280;57587;55.688;37.600;2024-01-27T12:31:23;99870.22;;;-0.01;55.54
70200;BME280;57587;55.688;37.600;2024-01-27T12:33:55;99883.78;;;0.06;55.24
70200;BME280;57587;55.688;37.600;2024-01-27T12:36:24;99884.88;;;0.04;55.63
70200;BME280;57587;55.688;37.600;2024-01-27T12:41:22;99895.69;;;-0.01;55.59
70200;BME280;57587;55.688;37.600;2024-01-27T12:43:49;99904.75;;;-0.05;56.01
70200;BME280;57587;55.688;37.600;2024-01-27T12:46:16;99900.78;;;-0.11;56.49
70200;BME280;57587;55.688;37.600;2024-01-27T12:48:45;99905.94;;;-0.09;56.60
70200;BME280;57587;55.688;37.600;2024-01-27T12:51:12;99908.13;;;-0.16;56.06
70200;BME280;57587;55.688;37.600;2024-01-27T12:53:42;99915.50;;;-0.08;56.20
70200;BME280;57587;55.688;37.600;2024-01-27T12:56:11;99911.06;;;-0.08;56.27
70200;BME280;57587;55.688;37.600;2024-01-27T13:03:11;99921.50;;;-0.06;56.45
70200;BME280;57587;55.688;37.600;2024-01-27T13:05:38;99923.25;;;-0.07;56.58
70200;BME280;57587;55.688;37.600;2024-01-27T13:08:06;99922.78;;;-0.12;56.73
70200;BME280;57587;55.688;37.600;2024-01-27T13:10:35;99929.50;;;-0.08;56.30
70200;BME280;57587;55.688;37.600;2024-01-27T13:13:03;99931.38;;;-0.10;56.52